Terminal Aerodrome Forecast
Issued by NWS Hastings, NE

Home | Current Version | Previous Version | Text Only | Print | Product List | Glossary On
Versions: 1 2 3 4 5 6 7 8 9 10 11 12 13 14 15 16 17 18
000
FTUS45 KGID 261720
TAFEAR
TAF
KEAR 261720Z 2618/2718 09011KT P6SM SCT100
     FM262100 10010KT P6SM VCTS BKN040CB
     FM270600 07007KT 5SM BR VCTS BKN008CB
     FM271400 10008KT P6SM VCTS BKN012CB
      AMD LTD TO CLD VIS AND WIND=

USA.gov is the U.S. government's official web portal to all federal, state and local government web resources and services.